Time;durP1;ratioP1;P1;durP2;ratioP2;P2;SDS_P1;SDS_P2;PMS_P1;PMS_P2;Temp;Humidity;BMP_temperature;BMP_pressure;BME280_temperature;BME280_humidity;BME280_pressure;Samples;Min_cycle;Max_cycle;Signal;HPM_P1;HPM_P2
2022/05/25 00:00:58;;;;;;;1.30;1.20;;;11.50;99.90;;;;;;5113588;28;20628;-58
2022/05/25 00:03:25;;;;;;;1.55;1.30;;;11.50;99.90;;;;;;5114872;28;20634;-57
2022/05/25 00:05:51;;;;;;;1.40;1.30;;;11.50;99.90;;;;;;5114724;28;20533;-58
2022/05/25 00:08:17;;;;;;;1.50;1.40;;;11.50;99.90;;;;;;5114808;28;20295;-57
2022/05/25 00:10:43;;;;;;;1.63;1.30;;;11.40;99.90;;;;;;5114879;28;20699;-57
2022/05/25 00:13:09;;;;;;;1.67;1.38;;;11.40;99.90;;;;;;5114619;28;20184;-58
2022/05/25 00:15:35;;;;;;;1.30;1.20;;;11.40;99.90;;;;;;5114813;28;20178;-58
2022/05/25 00:18:02;;;;;;;1.20;1.10;;;11.40;99.90;;;;;;5114900;28;20252;-57
2022/05/25 00:20:27;;;;;;;1.40;1.10;;;11.40;99.90;;;;;;5114621;28;20203;-58
2022/05/25 00:22:55;;;;;;;1.05;1.05;;;11.30;99.90;;;;;;5114604;28;20713;-58
2022/05/25 00:25:33;;;;;;;0.93;0.93;;;11.30;99.90;;;;;;5114447;28;20627;-58
2022/05/25 00:28:00;;;;;;;2.00;1.10;;;11.30;99.90;;;;;;5113709;28;20193;-58
2022/05/25 00:30:27;;;;;;;1.10;1.00;;;11.30;99.90;;;;;;5114401;28;20519;-58
2022/05/25 00:32:57;;;;;;;1.13;1.02;;;11.30;99.90;;;;;;5114344;28;20256;-58
2022/05/25 00:35:24;;;;;;;1.20;1.00;;;11.40;99.90;;;;;;5114459;28;20169;-58
2022/05/25 00:37:50;;;;;;;1.00;0.98;;;11.30;99.90;;;;;;5114300;28;20252;-58
2022/05/25 00:40:20;;;;;;;1.33;1.23;;;11.30;99.90;;;;;;5114179;28;20268;-58
2022/05/25 00:42:45;;;;;;;1.33;1.20;;;11.30;99.90;;;;;;5114141;28;20162;-58
2022/05/25 00:45:12;;;;;;;0.93;0.93;;;11.30;99.90;;;;;;5114297;28;20169;-58
2022/05/25 00:47:41;;;;;;;1.30;1.10;;;11.30;99.90;;;;;;5114186;28;20204;-58
2022/05/25 00:50:10;;;;;;;0.90;0.82;;;11.30;99.90;;;;;;5114107;28;20175;-58
2022/05/25 00:52:38;;;;;;;1.65;0.95;;;11.30;99.90;;;;;;5113903;28;20510;-58
2022/05/25 00:55:07;;;;;;;2.00;1.15;;;11.20;99.90;;;;;;5113822;28;20170;-58
2022/05/25 00:57:35;;;;;;;2.03;1.10;;;11.30;99.90;;;;;;5113010;28;20572;-58
2022/05/25 01:00:24;;;;;;;1.90;1.35;;;11.20;99.90;;;;;;5113847;28;20576;-58
2022/05/25 01:02:53;;;;;;;2.28;1.35;;;11.20;99.90;;;;;;5113413;28;20219;-58
2022/05/25 01:05:26;;;;;;;1.30;1.20;;;11.20;99.90;;;;;;5113469;28;20215;-58
2022/05/25 01:08:14;;;;;;;1.20;1.10;;;11.20;99.90;;;;;;5114013;28;20254;-58
2022/05/25 01:11:04;;;;;;;2.97;1.23;;;11.20;99.90;;;;;;5114287;28;20197;-58
2022/05/25 01:13:39;;;;;;;1.75;1.17;;;11.10;99.90;;;;;;5113710;28;20518;-58
2022/05/25 01:16:38;;;;;;;1.63;1.30;;;11.20;99.90;;;;;;5113959;28;20230;-58
2022/05/25 01:19:30;;;;;;;1.48;1.30;;;11.20;99.90;;;;;;5113884;28;20282;-58
2022/05/25 01:22:04;;;;;;;1.73;1.20;;;11.20;99.90;;;;;;5097358;28;20192;-58
2022/05/25 01:25:06;;;;;;;1.48;1.38;;;11.10;99.90;;;;;;5113988;28;20634;-57
2022/05/25 01:27:52;;;;;;;2.88;2.00;;;11.10;99.90;;;;;;5113639;28;20199;-58
2022/05/25 01:30:31;;;;;;;2.72;2.20;;;11.00;99.90;;;;;;5113551;28;20165;-58
2022/05/25 01:33:14;;;;;;;3.40;2.70;;;11.00;99.90;;;;;;5113775;28;20165;-57
2022/05/25 01:35:53;;;;;;;3.22;2.63;;;11.00;99.90;;;;;;5113580;28;20177;-58
2022/05/25 01:38:24;;;;;;;2.95;2.53;;;11.00;99.90;;;;;;5113470;28;20173;-57
2022/05/25 01:41:19;;;;;;;3.20;2.63;;;10.90;99.90;;;;;;5115088;28;20169;-57
2022/05/25 01:43:51;;;;;;;5.30;2.83;;;10.90;99.90;;;;;;5117809;27;20222;-58
2022/05/25 01:46:32;;;;;;;2.90;2.20;;;10.90;99.90;;;;;;5117637;28;20201;-58
2022/05/25 01:49:01;;;;;;;3.03;2.00;;;10.90;99.90;;;;;;5117443;28;20209;-57
2022/05/25 01:51:40;;;;;;;2.35;1.80;;;10.90;99.90;;;;;;5117681;28;20181;-58
2022/05/25 01:54:09;;;;;;;1.70;1.60;;;10.80;99.90;;;;;;5117628;28;20173;-57
2022/05/25 01:56:39;;;;;;;1.90;1.42;;;10.90;99.90;;;;;;5117403;28;20175;-58
2022/05/25 01:59:09;;;;;;;1.63;1.40;;;10.90;99.90;;;;;;5117322;28;20211;-57
2022/05/25 02:01:35;;;;;;;1.35;1.25;;;10.80;99.90;;;;;;5117207;28;20192;-57
2022/05/25 02:04:20;;;;;;;2.28;1.30;;;10.80;99.90;;;;;;5117451;28;20177;-58
2022/05/25 02:07:17;;;;;;;1.83;1.23;;;10.80;99.90;;;;;;5117109;28;20197;-57
2022/05/25 02:10:04;;;;;;;1.30;1.20;;;10.80;99.90;;;;;;5096935;28;20201;-58
2022/05/25 02:12:40;;;;;;;1.63;1.10;;;10.70;99.90;;;;;;5117300;28;20234;-58
2022/05/25 02:15:18;;;;;;;1.42;1.20;;;10.70;99.90;;;;;;5117254;28;20210;-57
2022/05/25 02:18:10;;;;;;;1.33;1.10;;;10.70;99.90;;;;;;5117335;27;20181;-58
2022/05/25 02:20:55;;;;;;;1.38;1.20;;;10.70;99.90;;;;;;5114518;28;20181;-58
2022/05/25 02:23:51;;;;;;;1.27;1.10;;;10.70;99.90;;;;;;5116972;28;20173;-58
2022/05/25 02:26:28;;;;;;;1.23;1.05;;;10.60;99.90;;;;;;5116819;28;20215;-57
2022/05/25 02:28:59;;;;;;;2.15;1.55;;;10.50;99.90;;;;;;5116662;28;20681;-57
2022/05/25 02:31:29;;;;;;;1.30;1.20;;;10.50;99.90;;;;;;5116882;28;20625;-58
2022/05/25 02:34:00;;;;;;;1.30;1.13;;;10.40;99.90;;;;;;5117124;28;20258;-58
2022/05/25 02:36:27;;;;;;;1.20;1.10;;;10.50;99.90;;;;;;5116653;28;20208;-57
2022/05/25 02:38:53;;;;;;;1.35;1.25;;;10.50;99.90;;;;;;5116536;28;20177;-57
2022/05/25 02:41:30;;;;;;;1.52;1.40;;;10.50;99.90;;;;;;5116341;28;20180;-59
2022/05/25 02:43:57;;;;;;;1.23;1.13;;;10.40;99.90;;;;;;5116458;28;20173;-58
2022/05/25 02:46:23;;;;;;;2.75;1.33;;;10.40;99.90;;;;;;5116527;28;20260;-57
2022/05/25 02:48:48;;;;;;;2.00;1.50;;;10.50;99.90;;;;;;5116422;27;20201;-57
2022/05/25 02:51:14;;;;;;;1.17;1.08;;;10.40;99.90;;;;;;5115424;28;20515;-57
2022/05/25 02:53:40;;;;;;;1.60;1.50;;;10.50;99.90;;;;;;5116236;28;20177;-57
2022/05/25 02:56:06;;;;;;;1.30;1.20;;;10.40;99.90;;;;;;5116379;28;20638;-57
2022/05/25 02:58:32;;;;;;;1.08;1.05;;;10.40;99.90;;;;;;5116306;28;20218;-58
2022/05/25 03:00:58;;;;;;;1.60;1.30;;;10.40;99.90;;;;;;5116286;28;20222;-57
2022/05/25 03:03:25;;;;;;;1.92;1.35;;;10.40;99.90;;;;;;5116206;28;20169;-58
2022/05/25 03:05:51;;;;;;;1.92;1.38;;;10.40;99.90;;;;;;5115958;28;20221;-58
2022/05/25 03:08:17;;;;;;;1.48;1.33;;;10.40;99.90;;;;;;5115857;28;20231;-57
2022/05/25 03:10:43;;;;;;;2.15;1.30;;;10.40;99.90;;;;;;5114796;28;20530;-58
2022/05/25 03:13:10;;;;;;;1.27;1.15;;;10.40;99.90;;;;;;5116057;28;20172;-57
2022/05/25 03:15:36;;;;;;;1.67;1.40;;;10.30;99.90;;;;;;5115819;28;20260;-58
2022/05/25 03:18:02;;;;;;;2.17;1.58;;;10.30;99.90;;;;;;5115847;28;20503;-57
2022/05/25 03:20:29;;;;;;;1.40;1.30;;;10.20;99.90;;;;;;5115691;28;20693;-57
2022/05/25 03:22:55;;;;;;;1.63;1.40;;;10.20;99.90;;;;;;5115559;28;20265;-57
2022/05/25 03:25:21;;;;;;;1.58;1.40;;;10.20;99.90;;;;;;5115666;28;20197;-57
2022/05/25 03:27:47;;;;;;;1.40;1.30;;;10.20;99.90;;;;;;5115648;28;20201;-58
2022/05/25 03:30:15;;;;;;;1.50;1.40;;;10.20;99.90;;;;;;5115789;27;20178;-57
2022/05/25 03:32:41;;;;;;;1.58;1.35;;;10.20;99.90;;;;;;5115465;28;20702;-57
2022/05/25 03:35:09;;;;;;;1.50;1.40;;;10.20;99.90;;;;;;5114153;28;20634;-58
2022/05/25 03:37:35;;;;;;;1.95;1.40;;;10.20;99.90;;;;;;5115296;28;20216;-57
2022/05/25 03:40:02;;;;;;;1.33;1.23;;;10.20;99.90;;;;;;5114076;28;20632;-57
2022/05/25 03:42:28;;;;;;;1.60;1.50;;;10.20;99.90;;;;;;5115469;28;20172;-57
2022/05/25 03:44:53;;;;;;;1.67;1.50;;;10.20;99.90;;;;;;5114167;28;20166;-57
2022/05/25 03:47:19;;;;;;;1.67;1.50;;;10.20;99.90;;;;;;5115190;28;20283;-58
2022/05/25 03:49:45;;;;;;;1.92;1.42;;;10.20;99.90;;;;;;5115195;28;20270;-58
2022/05/25 03:52:10;;;;;;;1.77;1.60;;;10.20;99.90;;;;;;5096920;28;20174;-58
2022/05/25 03:54:37;;;;;;;1.90;1.65;;;10.10;99.90;;;;;;5115283;28;20169;-57
2022/05/25 03:57:06;;;;;;;2.03;1.63;;;10.10;99.90;;;;;;5113869;28;20535;-57
2022/05/25 03:59:32;;;;;;;1.85;1.65;;;10.20;99.90;;;;;;5115049;28;20670;-57
2022/05/25 04:01:58;;;;;;;1.52;1.40;;;10.20;99.90;;;;;;5114993;28;20165;-57
2022/05/25 04:04:23;;;;;;;1.60;1.42;;;10.20;99.90;;;;;;5114922;28;20185;-57
2022/05/25 04:06:49;;;;;;;1.85;1.60;;;10.20;99.90;;;;;;5114908;28;20697;-57
2022/05/25 04:09:15;;;;;;;2.65;1.75;;;10.20;99.90;;;;;;5114818;28;20232;-57
2022/05/25 04:11:42;;;;;;;3.08;1.50;;;10.20;99.90;;;;;;5114918;28;20307;-57
2022/05/25 04:14:09;;;;;;;1.98;1.67;;;10.20;99.90;;;;;;5114621;28;20173;-58
2022/05/25 04:16:35;;;;;;;2.47;1.60;;;10.20;99.90;;;;;;5096561;28;20181;-57
2022/05/25 04:19:01;;;;;;;1.92;1.73;;;10.30;99.90;;;;;;5114624;28;20252;-57
2022/05/25 04:21:27;;;;;;;1.75;1.65;;;10.30;99.90;;;;;;5114512;28;20267;-57
2022/05/25 04:23:53;;;;;;;1.98;1.65;;;10.20;99.90;;;;;;5113435;28;20174;-57
2022/05/25 04:26:19;;;;;;;3.20;2.10;;;10.30;99.90;;;;;;5114524;28;20169;-57
2022/05/25 04:28:44;;;;;;;2.08;1.65;;;10.20;99.90;;;;;;5114464;28;20646;-57
2022/05/25 04:31:10;;;;;;;2.47;2.10;;;10.30;99.90;;;;;;5114437;28;20543;-57
2022/05/25 04:33:36;;;;;;;2.60;1.90;;;10.30;99.90;;;;;;5114223;28;20173;-58
2022/05/25 04:36:03;;;;;;;2.28;1.80;;;10.30;99.90;;;;;;5113078;28;20254;-57
2022/05/25 04:38:28;;;;;;;2.70;2.00;;;10.40;99.90;;;;;;5113114;28;20211;-57
2022/05/25 04:40:54;;;;;;;2.38;1.75;;;10.40;99.90;;;;;;5096198;28;20182;-57
2022/05/25 04:43:22;;;;;;;2.03;1.80;;;10.40;99.90;;;;;;5114193;28;20169;-57
2022/05/25 04:45:49;;;;;;;2.40;2.20;;;10.40;99.90;;;;;;5114137;28;20161;-57
2022/05/25 04:48:16;;;;;;;2.50;1.80;;;10.60;99.90;;;;;;5113896;28;20751;-57
2022/05/25 04:50:44;;;;;;;2.40;1.85;;;10.60;99.90;;;;;;5114273;28;20181;-57
2022/05/25 04:53:12;;;;;;;2.10;1.90;;;10.60;99.90;;;;;;5112929;28;20165;-57
2022/05/25 04:58:33;;;;;;;2.00;1.80;;;10.70;99.90;;;;;;5114234;28;20188;-58
2022/05/25 05:01:00;;;;;;;2.13;1.85;;;10.70;99.90;;;;;;5114095;28;20164;-57
2022/05/25 05:03:27;;;;;;;3.08;1.92;;;10.80;99.90;;;;;;5114022;28;20256;-57
2022/05/25 05:05:53;;;;;;;2.70;2.03;;;10.80;99.90;;;;;;5113942;28;20192;-57
2022/05/25 05:08:19;;;;;;;2.03;1.83;;;10.80;99.90;;;;;;5113762;28;20227;-58
2022/05/25 05:10:45;;;;;;;2.78;2.28;;;10.80;99.90;;;;;;5113789;28;20193;-57
2022/05/25 05:13:11;;;;;;;3.50;2.03;;;10.90;99.90;;;;;;5113713;28;20638;-57
2022/05/25 05:15:45;;;;;;;3.13;2.00;;;10.90;99.90;;;;;;5113431;28;20169;-57
2022/05/25 05:18:11;;;;;;;1.92;1.80;;;11.00;99.90;;;;;;5113842;28;20173;-57
2022/05/25 05:20:37;;;;;;;2.40;2.20;;;11.10;99.90;;;;;;5113732;28;20169;-57
2022/05/25 05:23:05;;;;;;;4.20;2.20;;;11.30;99.90;;;;;;5113727;28;20187;-57
2022/05/25 05:25:31;;;;;;;3.58;2.50;;;11.40;99.90;;;;;;5113582;28;20221;-57
2022/05/25 05:28:24;;;;;;;2.60;1.92;;;11.40;99.90;;;;;;5113376;28;20242;-58
2022/05/25 05:30:58;;;;;;;1.95;1.75;;;11.60;99.90;;;;;;5111970;28;20189;-57
2022/05/25 05:33:25;;;;;;;2.85;2.30;;;11.60;99.90;;;;;;5113610;28;20219;-58
2022/05/25 05:35:56;;;;;;;2.72;2.00;;;11.70;99.90;;;;;;5113780;28;20264;-57
2022/05/25 05:38:23;;;;;;;2.17;1.95;;;11.80;99.90;;;;;;5113430;28;20691;-57
2022/05/25 05:40:49;;;;;;;2.70;2.25;;;11.90;99.90;;;;;;5113636;28;20173;-57
2022/05/25 05:43:14;;;;;;;2.28;1.80;;;12.00;99.90;;;;;;5113559;28;20223;-57
2022/05/25 05:45:44;;;;;;;2.13;1.92;;;12.10;99.90;;;;;;5113470;28;20173;-57
2022/05/25 05:48:13;;;;;;;2.42;1.83;;;12.10;99.90;;;;;;5113338;28;20552;-57
2022/05/25 05:50:42;;;;;;;2.35;1.90;;;12.20;99.90;;;;;;5113350;28;20178;-57
2022/05/25 05:53:11;;;;;;;2.20;1.92;;;12.30;99.90;;;;;;5113562;28;20182;-58
2022/05/25 05:55:39;;;;;;;3.15;2.08;;;12.50;99.90;;;;;;5113396;28;20180;-58
2022/05/25 05:58:05;;;;;;;1.95;1.75;;;12.60;99.90;;;;;;5113399;28;20184;-57
2022/05/25 06:00:30;;;;;;;1.95;1.75;;;12.60;99.90;;;;;;5113371;28;20522;-57
2022/05/25 06:02:56;;;;;;;3.47;2.15;;;12.70;99.90;;;;;;5095016;28;20173;-58
2022/05/25 06:05:22;;;;;;;2.13;1.92;;;12.70;99.90;;;;;;5112915;28;20181;-58
2022/05/25 06:07:47;;;;;;;2.40;2.20;;;12.90;99.90;;;;;;5113337;28;20205;-58
2022/05/25 06:10:13;;;;;;;2.65;1.88;;;12.90;99.90;;;;;;5113292;28;20178;-58
2022/05/25 06:12:39;;;;;;;5.72;1.90;;;13.00;99.90;;;;;;5113276;28;20169;-57
2022/05/25 06:20:35;;;;;;;3.10;2.42;;;13.30;99.90;;;;;;5113406;28;20187;-57
2022/05/25 06:23:02;;;;;;;2.00;1.80;;;13.60;99.90;;;;;;5111885;28;20276;-57
2022/05/25 06:25:28;;;;;;;2.13;1.92;;;13.70;99.90;;;;;;5113160;28;20170;-57
2022/05/25 06:27:54;;;;;;;2.47;1.70;;;13.70;99.90;;;;;;5115664;28;20690;-57
2022/05/25 06:30:20;;;;;;;2.20;1.75;;;13.70;99.90;;;;;;5116620;28;20634;-58
2022/05/25 06:32:46;;;;;;;2.00;1.83;;;14.00;99.90;;;;;;5116866;28;20231;-58
2022/05/25 06:35:13;;;;;;;2.00;1.80;;;14.10;99.90;;;;;;5116601;28;20177;-57
2022/05/25 06:37:39;;;;;;;2.30;1.80;;;14.20;99.90;;;;;;5116666;28;20181;-57
2022/05/25 06:40:05;;;;;;;1.70;1.50;;;14.40;99.90;;;;;;5116619;28;20177;-57
2022/05/25 06:42:30;;;;;;;2.25;2.05;;;14.50;99.90;;;;;;5116587;28;20679;-57
2022/05/25 06:44:56;;;;;;;1.70;1.55;;;14.60;99.90;;;;;;5116411;28;20178;-57
2022/05/25 06:47:22;;;;;;;3.22;1.70;;;14.70;99.90;;;;;;5116557;28;20205;-57
2022/05/25 06:49:52;;;;;;;1.85;1.60;;;14.70;99.90;;;;;;5116516;28;20184;-57
2022/05/25 06:52:18;;;;;;;1.33;1.23;;;14.90;99.90;;;;;;5116474;28;20226;-58
2022/05/25 06:54:44;;;;;;;1.67;1.40;;;15.00;99.90;;;;;;5116400;28;20174;-58
2022/05/25 06:57:10;;;;;;;2.20;1.75;;;15.10;99.90;;;;;;5116297;28;20169;-58
2022/05/25 06:59:36;;;;;;;1.45;1.35;;;15.20;99.90;;;;;;5116152;28;20591;-58
2022/05/25 07:02:02;;;;;;;2.25;1.42;;;15.20;99.90;;;;;;5116313;28;20196;-58
2022/05/25 07:04:28;;;;;;;1.17;1.08;;;15.60;99.90;;;;;;5116239;28;20174;-57
2022/05/25 07:06:53;;;;;;;1.48;1.38;;;15.90;99.90;;;;;;5116185;28;20668;-57
2022/05/25 07:09:19;;;;;;;1.30;1.10;;;16.10;99.90;;;;;;5116020;28;20205;-58
2022/05/25 07:11:52;;;;;;;1.60;1.38;;;16.00;99.90;;;;;;5115965;28;20192;-57
2022/05/25 07:14:18;;;;;;;1.75;1.35;;;16.10;99.90;;;;;;5115865;28;20177;-58
2022/05/25 07:16:44;;;;;;;1.17;1.08;;;16.00;99.90;;;;;;5116081;28;20684;-58
2022/05/25 07:19:09;;;;;;;1.38;1.10;;;16.30;99.90;;;;;;5116169;28;20173;-58
2022/05/25 07:21:35;;;;;;;1.42;1.00;;;16.60;99.90;;;;;;5115790;28;20190;-58
2022/05/25 07:24:01;;;;;;;1.85;1.08;;;16.80;99.90;;;;;;5115793;28;20170;-58
2022/05/25 07:26:29;;;;;;;1.17;1.08;;;16.80;99.90;;;;;;5115709;27;20176;-58
2022/05/25 07:28:55;;;;;;;1.88;1.10;;;16.70;99.90;;;;;;5115750;28;20232;-59
2022/05/25 07:31:36;;;;;;;1.77;1.00;;;16.40;99.90;;;;;;5115718;28;20243;-58
2022/05/25 07:34:10;;;;;;;1.75;1.00;;;16.30;99.90;;;;;;5115706;28;20174;-58
2022/05/25 07:36:39;;;;;;;1.10;1.00;;;16.00;99.90;;;;;;5116078;27;20237;-58
2022/05/25 07:39:13;;;;;;;1.17;1.00;;;15.80;99.90;;;;;;5115085;28;20210;-58
2022/05/25 07:41:41;;;;;;;1.23;0.90;;;15.90;99.90;;;;;;5115551;28;20641;-58
2022/05/25 07:44:10;;;;;;;1.40;1.20;;;16.00;99.90;;;;;;5115499;28;20173;-58
2022/05/25 07:46:36;;;;;;;0.88;0.80;;;16.30;99.90;;;;;;5115430;28;20198;-57
2022/05/25 07:49:02;;;;;;;0.98;0.70;;;16.60;99.90;;;;;;5115342;28;20282;-58
2022/05/25 07:51:28;;;;;;;3.00;1.35;;;16.70;99.90;;;;;;5115086;28;20543;-57
2022/05/25 07:53:58;;;;;;;0.70;0.70;;;16.80;99.90;;;;;;5115064;28;20650;-57
2022/05/25 07:56:32;;;;;;;1.10;1.00;;;16.90;99.90;;;;;;5115284;28;20165;-58
2022/05/25 07:58:59;;;;;;;0.80;0.80;;;17.20;99.90;;;;;;5115271;27;20252;-58
2022/05/25 08:07:03;;;;;;;0.75;0.75;;;17.70;99.90;;;;;;5114897;28;20665;-57
2022/05/25 08:09:31;;;;;;;0.75;0.50;;;17.70;99.90;;;;;;5114979;28;20641;-57
2022/05/25 08:11:57;;;;;;;0.88;0.70;;;17.50;99.90;;;;;;5114734;28;20165;-58
2022/05/25 08:14:25;;;;;;;0.57;0.50;;;17.60;99.90;;;;;;5114696;28;20180;-57
2022/05/25 08:16:53;;;;;;;1.85;0.90;;;17.80;99.90;;;;;;5114956;28;20626;-58
2022/05/25 08:19:18;;;;;;;0.60;0.60;;;17.80;99.90;;;;;;5114817;28;20220;-57
2022/05/25 08:21:46;;;;;;;2.05;0.80;;;17.50;99.90;;;;;;5114738;28;20204;-58
2022/05/25 08:24:11;;;;;;;0.60;0.60;;;17.70;99.90;;;;;;5114610;28;20178;-58
2022/05/25 08:26:37;;;;;;;1.20;0.65;;;17.80;99.90;;;;;;5114633;28;20175;-57
2022/05/25 08:29:03;;;;;;;1.10;0.63;;;18.00;99.90;;;;;;5114281;28;20204;-58
2022/05/25 08:31:29;;;;;;;3.83;0.80;;;18.10;99.90;;;;;;5114630;28;20188;-58
2022/05/25 08:33:54;;;;;;;0.40;0.40;;;18.30;99.90;;;;;;5113416;28;20177;-58
2022/05/25 08:36:20;;;;;;;0.95;0.50;;;18.30;99.90;;;;;;5113201;28;20630;-58
2022/05/25 08:38:46;;;;;;;0.73;0.47;;;18.30;99.90;;;;;;5114413;28;20177;-58
2022/05/25 08:41:12;;;;;;;0.93;0.45;;;18.40;99.90;;;;;;5113034;28;20192;-57
2022/05/25 08:43:45;;;;;;;0.85;0.50;;;18.40;99.90;;;;;;5114211;28;20173;-58
2022/05/25 08:46:16;;;;;;;0.90;0.68;;;18.60;99.90;;;;;;5114381;28;20218;-58
2022/05/25 08:48:43;;;;;;;1.17;0.80;;;18.70;99.90;;;;;;5113984;28;20308;-57
2022/05/25 08:51:15;;;;;;;0.50;0.50;;;18.70;99.90;;;;;;5113821;28;20193;-57
2022/05/25 08:53:41;;;;;;;0.63;0.55;;;18.40;99.90;;;;;;5114088;28;20166;-58
2022/05/25 08:56:25;;;;;;;0.47;0.38;;;18.60;99.90;;;;;;5113950;28;20184;-59
2022/05/25 08:58:58;;;;;;;0.55;0.55;;;18.60;99.90;;;;;;5114184;28;20248;-57
2022/05/25 09:01:29;;;;;;;0.68;0.50;;;18.20;99.90;;;;;;5114124;28;20172;-58
2022/05/25 09:04:08;;;;;;;0.43;0.43;;;18.10;99.90;;;;;;5114003;28;20177;-58
2022/05/25 09:06:53;;;;;;;1.55;0.50;;;18.30;99.90;;;;;;5113719;28;20561;-57
2022/05/25 09:09:24;;;;;;;0.50;0.50;;;18.90;99.90;;;;;;5114102;28;20200;-57
2022/05/25 09:12:11;;;;;;;1.00;0.80;;;19.20;99.90;;;;;;5113539;27;20205;-58
2022/05/25 09:14:43;;;;;;;0.80;0.60;;;19.40;99.90;;;;;;5113858;28;20526;-58
2022/05/25 09:17:23;;;;;;;0.95;0.52;;;19.40;99.90;;;;;;5113675;28;20563;-58
2022/05/25 09:19:50;;;;;;;0.45;0.45;;;19.10;99.90;;;;;;5113897;28;20538;-58
2022/05/25 09:22:24;;;;;;;0.52;0.52;;;19.40;99.90;;;;;;5113807;28;20165;-58
2022/05/25 09:24:54;;;;;;;0.73;0.68;;;19.50;99.90;;;;;;5113665;28;20572;-58
2022/05/25 09:27:28;;;;;;;0.47;0.47;;;19.70;99.90;;;;;;5113435;28;20544;-58
2022/05/25 09:29:58;;;;;;;0.90;0.63;;;19.90;99.90;;;;;;5113782;28;20169;-58
2022/05/25 09:32:51;;;;;;;0.40;0.40;;;20.00;99.90;;;;;;5113611;28;20244;-58
2022/05/25 09:35:25;;;;;;;1.02;0.43;;;19.90;99.90;;;;;;5113632;28;20173;-58
2022/05/25 09:38:06;;;;;;;1.05;1.00;;;19.80;99.90;;;;;;5113521;28;20652;-57
2022/05/25 09:40:35;;;;;;;0.43;0.43;;;20.00;99.90;;;;;;5112222;28;20172;-58
2022/05/25 09:43:04;;;;;;;0.65;0.32;;;20.10;99.90;;;;;;5113499;28;20169;-58
2022/05/25 09:45:40;;;;;;;0.40;0.40;;;20.30;99.90;;;;;;5113837;28;20173;-58
2022/05/25 09:48:24;;;;;;;0.35;0.35;;;20.30;99.90;;;;;;5113237;28;20204;-58
2022/05/25 09:50:59;;;;;;;0.57;0.55;;;20.40;99.90;;;;;;5113869;28;20176;-58
2022/05/25 09:53:43;;;;;;;1.73;0.57;;;20.50;99.90;;;;;;5113686;28;20169;-57
2022/05/25 09:56:23;;;;;;;0.65;0.50;;;20.50;99.90;;;;;;5113463;28;20165;-58
2022/05/25 09:58:56;;;;;;;1.00;0.73;;;20.50;99.90;;;;;;5113261;28;20956;-58
2022/05/25 10:01:39;;;;;;;0.30;0.30;;;20.60;99.90;;;;;;5115315;28;20223;-58
2022/05/25 10:04:06;;;;;;;0.50;0.47;;;20.30;99.90;;;;;;5117383;28;20185;-58
2022/05/25 10:06:47;;;;;;;0.75;0.47;;;19.60;99.90;;;;;;5117212;28;20200;-58
2022/05/25 10:09:24;;;;;;;0.40;0.40;;;19.10;99.90;;;;;;5117236;28;20204;-57
2022/05/25 10:12:18;;;;;;;0.47;0.47;;;18.90;99.90;;;;;;5117426;28;20196;-57
2022/05/25 10:15:02;;;;;;;0.50;0.50;;;19.00;99.90;;;;;;5117539;28;20629;-58
2022/05/25 10:17:30;;;;;;;0.43;0.43;;;18.70;99.90;;;;;;5117033;28;20196;-57
2022/05/25 10:19:57;;;;;;;0.55;0.40;;;18.40;99.90;;;;;;5117242;28;20177;-58
2022/05/25 10:22:23;;;;;;;0.43;0.43;;;18.20;99.90;;;;;;5117162;28;20169;-57
2022/05/25 10:25:03;;;;;;;0.50;0.50;;;18.50;99.90;;;;;;5116842;28;20695;-58
2022/05/25 10:27:42;;;;;;;0.40;0.40;;;18.90;99.90;;;;;;5115611;28;20695;-57
2022/05/25 10:39:41;;;;;;;0.43;0.40;;;19.70;99.90;;;;;;5116950;28;20192;-58
2022/05/25 10:42:22;;;;;;;0.80;0.50;;;19.60;99.90;;;;;;5095176;28;20191;-57
2022/05/25 10:45:01;;;;;;;0.35;0.35;;;19.70;99.90;;;;;;5116723;28;20169;-58
2022/05/25 10:48:07;;;;;;;0.43;0.40;;;19.40;99.90;;;;;;5116508;28;20278;-58
2022/05/25 10:50:45;;;;;;;0.52;0.43;;;18.90;99.90;;;;;;5073624;28;20185;-58
2022/05/25 10:53:17;;;;;;;1.40;0.60;;;18.60;99.90;;;;;;5112110;28;20197;-58
2022/05/25 10:56:01;;;;;;;0.35;0.35;;;18.30;99.90;;;;;;5116742;28;20248;-58
2022/05/25 10:58:47;;;;;;;1.25;0.40;;;18.30;99.90;;;;;;5116454;28;20176;-58
2022/05/25 11:01:39;;;;;;;0.50;0.47;;;18.90;99.90;;;;;;5115857;28;20189;-58
2022/05/25 11:04:15;;;;;;;0.25;0.25;;;19.30;99.90;;;;;;5115713;28;20193;-57
2022/05/25 11:07:11;;;;;;;0.98;0.40;;;19.60;99.90;;;;;;5116290;28;20196;-57
2022/05/25 11:09:52;;;;;;;0.40;0.28;;;19.70;99.90;;;;;;5116073;28;20181;-57
2022/05/25 11:12:37;;;;;;;1.00;0.40;;;20.00;99.90;;;;;;5115544;28;20248;-58
2022/05/25 11:15:30;;;;;;;0.30;0.22;;;19.70;99.90;;;;;;5116158;28;20234;-57
2022/05/25 11:18:10;;;;;;;0.68;0.40;;;19.00;99.90;;;;;;5115963;28;20214;-58
2022/05/25 11:21:00;;;;;;;0.35;0.22;;;18.50;99.90;;;;;;5116091;28;20165;-57
2022/05/25 11:23:37;;;;;;;2.38;0.85;;;18.20;99.90;;;;;;5116064;28;20165;-57
2022/05/25 11:26:28;;;;;;;0.73;0.70;;;17.80;99.90;;;;;;5115890;28;20185;-57
2022/05/25 11:29:15;;;;;;;0.40;0.40;;;17.70;99.90;;;;;;5115801;28;20711;-56
2022/05/25 11:32:18;;;;;;;0.43;0.30;;;18.10;99.90;;;;;;5115622;28;20188;-57
2022/05/25 11:35:12;;;;;;;1.23;0.55;;;18.50;99.90;;;;;;5115808;28;20176;-58
2022/05/25 11:38:11;;;;;;;0.43;0.40;;;19.00;99.90;;;;;;5115566;28;20185;-57
2022/05/25 11:41:07;;;;;;;3.13;0.80;;;18.80;99.90;;;;;;5115440;28;20534;-57
2022/05/25 11:43:42;;;;;;;0.63;0.40;;;18.70;99.90;;;;;;5115429;28;20169;-58
2022/05/25 11:46:28;;;;;;;0.38;0.38;;;18.50;99.90;;;;;;5115446;28;20168;-58
2022/05/25 11:49:02;;;;;;;0.57;0.45;;;18.50;99.90;;;;;;5114093;28;20218;-58
2022/05/25 11:51:53;;;;;;;1.00;0.32;;;19.00;99.90;;;;;;5115474;28;20172;-58
2022/05/25 11:54:32;;;;;;;0.85;0.40;;;19.40;99.90;;;;;;5115312;28;20172;-60
2022/05/25 11:57:10;;;;;;;0.57;0.40;;;19.70;99.90;;;;;;5115313;28;20192;-58
2022/05/25 12:00:01;;;;;;;0.40;0.40;;;19.70;99.90;;;;;;5115122;28;20254;-57
2022/05/25 12:03:04;;;;;;;0.98;0.50;;;19.30;99.90;;;;;;5115253;28;20228;-58
2022/05/25 12:05:47;;;;;;;0.30;0.30;;;19.00;99.90;;;;;;5114890;28;20230;-58
2022/05/25 12:08:28;;;;;;;2.22;0.45;;;18.80;99.90;;;;;;5114948;28;20230;-58
2022/05/25 12:11:17;;;;;;;0.75;0.30;;;18.60;99.90;;;;;;5115297;28;20176;-59
2022/05/25 12:13:49;;;;;;;0.98;0.57;;;18.50;99.90;;;;;;5114998;27;20180;-60
2022/05/25 12:16:29;;;;;;;0.47;0.30;;;18.40;99.90;;;;;;5114745;28;20577;-58
2022/05/25 12:19:04;;;;;;;0.65;0.52;;;18.50;99.90;;;;;;5114697;28;20729;-59
2022/05/25 12:21:47;;;;;;;0.47;0.40;;;18.70;99.90;;;;;;5114896;28;20173;-58
2022/05/25 12:24:21;;;;;;;0.85;0.30;;;19.10;99.90;;;;;;5113761;28;20169;-58
2022/05/25 12:26:47;;;;;;;0.40;0.40;;;19.50;99.90;;;;;;5114926;28;20170;-58
2022/05/25 12:29:35;;;;;;;0.75;0.63;;;19.70;99.90;;;;;;5114666;28;20216;-58
2022/05/25 12:32:01;;;;;;;0.47;0.45;;;19.70;99.90;;;;;;5114732;28;20169;-58
2022/05/25 12:34:40;;;;;;;0.22;0.20;;;19.70;99.90;;;;;;5114593;28;20282;-58
2022/05/25 12:37:08;;;;;;;0.47;0.40;;;19.70;99.90;;;;;;5114212;28;20238;-58
2022/05/25 12:39:42;;;;;;;0.38;0.38;;;19.50;99.90;;;;;;5114724;28;20530;-58
2022/05/25 12:42:23;;;;;;;0.63;0.38;;;19.50;99.90;;;;;;5114400;28;20165;-59
2022/05/25 12:50:53;;;;;;;0.60;0.28;;;20.30;99.90;;;;;;5114415;28;20209;-58
2022/05/25 12:53:20;;;;;;;0.77;0.40;;;20.30;99.90;;;;;;5114060;28;20248;-58
2022/05/25 12:55:57;;;;;;;0.52;0.40;;;20.40;99.90;;;;;;5113954;28;20169;-59
2022/05/25 12:58:38;;;;;;;0.73;0.30;;;20.30;99.90;;;;;;5114289;28;20180;-59
2022/05/25 13:01:32;;;;;;;0.30;0.30;;;20.10;99.90;;;;;;5114173;28;20251;-58
2022/05/25 13:03:57;;;;;;;0.30;0.30;;;19.90;99.90;;;;;;5113963;28;20237;-58
2022/05/25 13:06:29;;;;;;;0.50;0.20;;;19.70;99.90;;;;;;5114057;28;20193;-59
2022/05/25 13:09:00;;;;;;;0.75;0.40;;;19.70;99.90;;;;;;5114008;28;20209;-60
2022/05/25 13:11:47;;;;;;;0.22;0.20;;;19.70;99.90;;;;;;5114088;28;20165;-58
2022/05/25 13:14:25;;;;;;;0.70;0.40;;;20.00;99.90;;;;;;5113915;28;20197;-58
2022/05/25 13:16:52;;;;;;;0.55;0.32;;;19.90;99.90;;;;;;5114114;28;20183;-58
2022/05/25 13:19:37;;;;;;;0.40;0.30;;;19.70;99.90;;;;;;5113826;28;20208;-58
2022/05/25 13:22:35;;;;;;;0.25;0.25;;;19.60;99.90;;;;;;5113844;28;20201;-57
2022/05/25 13:25:03;;;;;;;0.20;0.20;;;19.40;99.90;;;;;;5090294;28;20221;-58
2022/05/25 13:27:38;;;;;;;0.65;0.45;;;19.20;99.90;;;;;;5112434;28;20601;-58
2022/05/25 13:30:17;;;;;;;0.50;0.50;;;19.20;99.90;;;;;;5114108;28;20175;-58
2022/05/25 13:33:00;;;;;;;0.20;0.20;;;19.20;99.90;;;;;;5112495;28;20187;-59
2022/05/25 13:35:48;;;;;;;2.15;0.32;;;19.40;99.90;;;;;;5114003;28;20246;-59
2022/05/25 13:38:42;;;;;;;0.52;0.20;;;19.30;99.90;;;;;;5117977;28;20169;-57
2022/05/25 13:42:04;;;;;;;1.05;0.38;;;19.20;99.90;;;;;;5117929;27;20178;-57
2022/05/25 13:44:53;;;;;;;0.20;0.20;;;19.20;99.90;;;;;;5044614;28;20233;-57
2022/05/25 13:47:21;;;;;;;0.40;0.40;;;19.20;99.90;;;;;;5114799;28;20193;-58